createdAt,value
2023-01-05T00:01:26.486Z,23.42
2023-01-05T00:03:53.559Z,23.75
2023-01-05T00:06:20.617Z,21.27
2023-01-05T00:08:48.273Z,23.42
2023-01-05T00:11:35.615Z,22.65
2023-01-05T00:14:21.297Z,22.88
2023-01-05T00:17:07.350Z,20.92
2023-01-05T00:19:53.045Z,19.90
2023-01-05T00:22:30.950Z,23.30
2023-01-05T00:24:58.987Z,23.67
2023-01-05T00:27:26.439Z,18.88
2023-01-05T00:29:53.604Z,20.80
2023-01-05T00:32:20.969Z,18.77
2023-01-05T00:34:48.132Z,20.45
2023-01-05T00:37:15.303Z,26.65
2023-01-05T00:39:42.524Z,41.60
2023-01-05T00:42:09.666Z,26.70
2023-01-05T00:44:36.760Z,41.20
2023-01-05T00:47:03.899Z,31.55
2023-01-05T00:49:31.025Z,28.35
2023-01-05T00:51:58.430Z,27.35
2023-01-05T00:54:25.649Z,30.20
2023-01-05T00:56:52.805Z,22.02
2023-01-05T00:59:19.902Z,27.33
2023-01-05T01:01:48.007Z,23.77
2023-01-05T01:04:15.353Z,26.70
2023-01-05T01:06:42.428Z,22.98
2023-01-05T01:09:10.056Z,20.90
2023-01-05T01:11:38.846Z,20.88
2023-01-05T01:14:06.958Z,20.80
2023-01-05T01:16:34.453Z,19.05
2023-01-05T01:19:05.308Z,21.65
2023-01-05T01:21:32.910Z,22.40
2023-01-05T01:24:00.197Z,22.00
2023-01-05T01:26:27.585Z,23.75
2023-01-05T01:28:56.537Z,28.02
2023-01-05T01:31:23.884Z,22.48
2023-01-05T01:33:53.233Z,34.25
2023-01-05T01:36:20.886Z,31.13
2023-01-05T01:38:48.236Z,35.67
2023-01-05T01:41:15.921Z,39.08
2023-01-05T01:43:50.692Z,34.65
2023-01-05T01:46:20.441Z,44.17
2023-01-05T01:48:48.889Z,40.22
2023-01-05T01:51:18.856Z,44.03
2023-01-05T01:53:48.435Z,46.20
2023-01-05T01:56:18.396Z,40.92
2023-01-05T01:58:45.650Z,39.58
2023-01-05T02:01:13.245Z,39.25
2023-01-05T02:03:40.951Z,36.78
2023-01-05T02:06:08.342Z,34.45
2023-01-05T02:08:35.680Z,31.90
2023-01-05T02:11:18.129Z,31.80
2023-01-05T02:13:54.262Z,25.48
2023-01-05T02:16:44.715Z,27.23
2023-01-05T02:19:33.243Z,30.42
2023-01-05T02:22:00.350Z,23.65
2023-01-05T02:24:54.454Z,25.65
2023-01-05T02:27:25.194Z,21.75
2023-01-05T02:30:04.430Z,23.42
2023-01-05T02:32:31.737Z,24.05
2023-01-05T02:34:58.926Z,20.55
2023-01-05T02:37:32.221Z,22.35
2023-01-05T02:40:21.164Z,22.00
2023-01-05T02:42:50.442Z,24.98
2023-01-05T02:45:21.781Z,23.10
2023-01-05T02:47:50.099Z,16.98
2023-01-05T02:50:17.488Z,17.35
2023-01-05T02:52:44.799Z,19.00
2023-01-05T02:55:14.157Z,19.90
2023-01-05T02:57:47.801Z,16.80
2023-01-05T03:00:39.264Z,17.77
2023-01-05T03:03:26.542Z,16.65
2023-01-05T03:06:04.553Z,20.05
2023-01-05T03:08:33.639Z,16.70
2023-01-05T03:11:25.265Z,15.93
2023-01-05T03:13:56.291Z,17.38
2023-01-05T03:16:28.330Z,18.50
2023-01-05T03:19:18.322Z,20.13
2023-01-05T03:22:04.034Z,17.40
2023-01-05T03:24:54.832Z,18.15
2023-01-05T03:27:42.742Z,17.05
2023-01-05T03:30:29.966Z,18.63
2023-01-05T03:33:30.969Z,17.63
2023-01-05T03:36:00.000Z,16.10
2023-01-05T03:38:30.573Z,18.40
2023-01-05T03:40:59.538Z,16.67
2023-01-05T03:43:27.349Z,17.15
2023-01-05T03:45:55.822Z,20.80
2023-01-05T03:48:26.603Z,17.63
2023-01-05T03:50:53.861Z,19.00
2023-01-05T03:53:22.980Z,18.42
2023-01-05T03:55:50.663Z,15.82
2023-01-05T03:58:18.288Z,16.10
2023-01-05T04:00:48.426Z,14.20
2023-01-05T04:03:18.699Z,15.25
2023-01-05T04:05:46.138Z,15.25
2023-01-05T04:08:13.270Z,16.65
2023-01-05T04:10:40.492Z,17.58
2023-01-05T04:13:08.717Z,15.70
2023-01-05T04:15:36.642Z,14.65
2023-01-05T04:18:05.792Z,17.70
2023-01-05T04:20:33.249Z,15.75
2023-01-05T04:23:00.732Z,14.25
2023-01-05T04:25:28.159Z,17.63
2023-01-05T04:27:55.502Z,16.75
2023-01-05T04:30:23.273Z,16.75
2023-01-05T04:32:50.603Z,17.85
2023-01-05T04:35:17.806Z,16.95
2023-01-05T04:37:46.424Z,16.83
2023-01-05T04:40:14.175Z,19.23
2023-01-05T04:42:50.112Z,14.70
2023-01-05T04:45:17.390Z,16.67
2023-01-05T04:47:45.593Z,16.45
2023-01-05T04:50:16.897Z,20.23
2023-01-05T04:52:44.758Z,17.05
2023-01-05T04:55:12.643Z,15.93
2023-01-05T04:57:40.493Z,16.75
2023-01-05T05:00:11.686Z,20.85
2023-01-05T05:02:39.188Z,26.95
2023-01-05T05:05:09.228Z,24.80
2023-01-05T05:07:38.289Z,20.20
2023-01-05T05:10:05.906Z,23.55
2023-01-05T05:12:33.415Z,22.80
2023-01-05T05:15:00.705Z,22.25
2023-01-05T05:17:29.363Z,27.58
2023-01-05T05:19:57.350Z,21.30
2023-01-05T05:22:25.383Z,22.92
2023-01-05T05:24:52.513Z,18.38
2023-01-05T05:27:19.721Z,21.85
2023-01-05T05:29:46.764Z,20.73
2023-01-05T05:32:13.887Z,24.63
2023-01-05T05:34:40.976Z,26.20
2023-01-05T05:37:08.330Z,27.45
2023-01-05T05:39:35.431Z,25.67
2023-01-05T05:42:02.604Z,25.58
2023-01-05T05:44:29.782Z,34.17
2023-01-05T05:46:57.090Z,32.28
2023-01-05T05:49:24.270Z,43.78
2023-01-05T05:51:51.501Z,30.25
2023-01-05T05:54:18.678Z,41.30
2023-01-05T05:56:45.845Z,35.88
2023-01-05T05:59:14.635Z,28.15
2023-01-05T06:01:41.915Z,29.05
2023-01-05T06:04:09.037Z,32.53
2023-01-05T06:06:36.140Z,28.45
2023-01-05T06:09:03.422Z,25.77
2023-01-05T06:11:30.531Z,20.80
2023-01-05T06:13:57.792Z,23.00
2023-01-05T06:16:24.930Z,26.10
2023-01-05T06:18:52.148Z,25.98
2023-01-05T06:21:21.650Z,17.20
2023-01-05T06:23:48.855Z,23.98
2023-01-05T06:26:18.587Z,20.63
2023-01-05T06:28:45.692Z,15.77
2023-01-05T06:31:12.983Z,20.90
2023-01-05T06:33:40.065Z,16.27
2023-01-05T06:36:07.402Z,20.67
2023-01-05T06:38:34.558Z,14.15
2023-01-05T06:41:01.712Z,17.38
2023-01-05T06:43:28.815Z,16.33
2023-01-05T06:45:55.969Z,18.33
2023-01-05T06:48:23.905Z,18.67
2023-01-05T06:50:51.179Z,24.05
2023-01-05T06:53:18.329Z,18.23
2023-01-05T06:55:45.863Z,32.67
2023-01-05T06:58:14.468Z,35.92
2023-01-05T07:00:41.861Z,36.33
2023-01-05T07:03:10.915Z,35.45
2023-01-05T07:05:38.237Z,38.80
2023-01-05T07:08:05.448Z,48.33
2023-01-05T07:10:32.615Z,34.08
2023-01-05T07:12:59.924Z,48.55
2023-01-05T07:15:27.022Z,37.92
2023-01-05T07:17:54.305Z,47.22
2023-01-05T07:20:21.445Z,45.15
2023-01-05T07:22:48.672Z,40.50
2023-01-05T07:25:15.721Z,34.58
2023-01-05T07:27:42.944Z,34.75
2023-01-05T07:30:10.402Z,30.13
2023-01-05T07:32:37.642Z,34.50
2023-01-05T07:35:05.009Z,37.25
2023-01-05T07:37:32.085Z,48.10
2023-01-05T07:39:59.238Z,44.75
2023-01-05T07:42:26.486Z,40.75
2023-01-05T07:44:53.667Z,49.70
2023-01-05T07:47:20.749Z,53.40
2023-01-05T07:49:47.882Z,62.90
2023-01-05T07:52:15.153Z,59.20
2023-01-05T07:54:42.183Z,53.13
2023-01-05T07:57:09.431Z,37.25
2023-01-05T07:59:36.617Z,40.10
2023-01-05T08:02:04.013Z,33.63
2023-01-05T08:04:31.254Z,32.50
2023-01-05T08:06:58.444Z,38.03
2023-01-05T08:09:44.424Z,24.33
2023-01-05T08:12:11.579Z,27.10
2023-01-05T08:14:38.775Z,21.15
2023-01-05T08:17:06.893Z,23.38
2023-01-05T08:19:34.019Z,21.50
2023-01-05T08:22:01.928Z,22.70
2023-01-05T08:24:29.198Z,21.10
2023-01-05T08:26:56.506Z,20.30
2023-01-05T08:29:23.683Z,21.48
2023-01-05T08:31:50.830Z,18.63
2023-01-05T08:34:18.153Z,27.08
2023-01-05T08:36:45.330Z,20.85
2023-01-05T08:39:12.693Z,17.95
2023-01-05T08:41:40.581Z,25.02
2023-01-05T08:44:10.980Z,19.20
2023-01-05T08:46:38.190Z,26.08
2023-01-05T08:49:07.314Z,19.88
2023-01-05T08:51:34.622Z,21.70
2023-01-05T08:54:01.717Z,21.65
2023-01-05T08:56:34.633Z,21.48
2023-01-05T08:59:05.394Z,20.15
2023-01-05T09:01:32.619Z,17.55
2023-01-05T09:03:59.878Z,18.25
2023-01-05T09:06:27.093Z,18.70
2023-01-05T09:08:56.169Z,18.48
2023-01-05T09:11:24.541Z,18.55
2023-01-05T09:13:52.923Z,25.08
2023-01-05T09:19:09.776Z,21.13
2023-01-05T09:21:39.754Z,17.73
2023-01-05T09:24:07.888Z,20.27
2023-01-05T09:26:35.325Z,22.15
2023-01-05T09:29:02.372Z,19.67
2023-01-05T09:31:29.642Z,28.38
2023-01-05T09:33:57.331Z,32.63
2023-01-05T09:36:25.891Z,38.40
2023-01-05T09:38:53.488Z,39.60
2023-01-05T09:41:22.853Z,42.88
2023-01-05T09:43:52.637Z,55.03
2023-01-05T09:46:25.374Z,34.08
2023-01-05T09:48:58.032Z,32.88
2023-01-05T09:51:25.510Z,44.33
2023-01-05T09:53:52.797Z,45.80
2023-01-05T09:56:59.127Z,51.10
2023-01-05T09:59:14.551Z,46.55
2023-01-05T10:01:41.923Z,49.60
2023-01-05T10:04:30.588Z,55.53
2023-01-05T10:07:00.372Z,38.70
2023-01-05T10:09:33.585Z,35.83
2023-01-05T10:12:34.332Z,33.63
2023-01-05T10:15:05.855Z,35.65
2023-01-05T10:17:47.019Z,32.10
2023-01-05T10:20:15.565Z,39.78
2023-01-05T10:22:43.128Z,29.88
2023-01-05T10:25:22.058Z,25.38
2023-01-05T10:27:54.760Z,19.90
2023-01-05T10:30:25.348Z,24.08
2023-01-05T10:33:22.123Z,22.70
2023-01-05T10:36:05.265Z,16.92
2023-01-05T10:38:49.954Z,17.25
2023-01-05T10:41:20.071Z,14.02
2023-01-05T10:43:47.223Z,15.98
2023-01-05T10:46:39.975Z,16.73
2023-01-05T10:49:03.960Z,18.60
2023-01-05T10:51:33.980Z,13.90
2023-01-05T10:54:01.739Z,16.73
2023-01-05T10:56:29.729Z,16.83
2023-01-05T10:59:10.646Z,14.40
2023-01-05T11:01:38.789Z,11.70
2023-01-05T11:07:05.173Z,12.60
2023-01-05T11:09:32.610Z,16.73
2023-01-05T11:12:20.638Z,13.13
2023-01-05T11:14:54.755Z,13.48
2023-01-05T11:17:25.563Z,11.25
2023-01-05T11:19:56.929Z,15.32
2023-01-05T11:22:44.715Z,9.90
2023-01-05T11:25:22.180Z,10.50
2023-01-05T11:28:05.701Z,11.75
2023-01-05T11:30:33.715Z,13.30
2023-01-05T11:33:02.068Z,12.00
2023-01-05T11:35:34.156Z,10.45
2023-01-05T11:38:01.661Z,16.98
2023-01-05T11:40:34.694Z,10.75
2023-01-05T11:43:11.864Z,12.77
2023-01-05T11:45:41.847Z,12.07
2023-01-05T11:48:09.086Z,9.70
2023-01-05T11:50:49.625Z,8.45
2023-01-05T11:53:25.475Z,10.20
2023-01-05T11:56:03.319Z,10.38
2023-01-05T11:58:44.331Z,8.77
2023-01-05T12:01:11.729Z,7.70
2023-01-05T12:03:44.585Z,8.27
2023-01-05T12:06:14.660Z,10.38
2023-01-05T12:08:55.925Z,14.70
2023-01-05T12:11:24.619Z,14.20
2023-01-05T12:13:54.814Z,13.70
2023-01-05T12:16:28.094Z,12.90
2023-01-05T12:19:01.547Z,12.80
2023-01-05T12:21:32.805Z,14.35
2023-01-05T12:24:02.956Z,12.38
2023-01-05T12:26:34.260Z,13.43
2023-01-05T12:35:38.553Z,13.02
2023-01-05T12:38:27.349Z,17.00
2023-01-05T12:41:12.961Z,12.80
2023-01-05T12:46:09.692Z,13.25
2023-01-05T12:48:40.045Z,12.32
2023-01-05T12:51:10.092Z,9.98
2023-01-05T12:53:42.958Z,8.30
2023-01-05T12:56:26.230Z,9.73
2023-01-05T12:59:12.152Z,12.02
2023-01-05T13:04:12.394Z,12.27
2023-01-05T13:06:41.520Z,14.88
2023-01-05T13:09:17.377Z,15.02
2023-01-05T13:12:01.763Z,11.50
2023-01-05T13:14:31.306Z,13.50
2023-01-05T13:17:02.188Z,10.32
2023-01-05T13:19:32.436Z,10.77
2023-01-05T13:22:02.005Z,14.98
2023-01-05T13:24:35.356Z,12.73
2023-01-05T13:27:03.168Z,11.15
2023-01-05T13:29:33.285Z,12.95
2023-01-05T13:32:19.256Z,9.23
2023-01-05T13:37:27.985Z,14.48
2023-01-05T13:40:10.554Z,14.15
2023-01-05T13:42:49.848Z,17.90
2023-01-05T13:45:23.991Z,11.55
2023-01-05T13:47:56.477Z,12.82
2023-01-05T13:50:43.145Z,11.98
2023-01-05T13:53:10.295Z,18.75
2023-01-05T13:55:44.824Z,21.75
2023-01-05T13:58:30.608Z,16.25
2023-01-05T14:03:28.852Z,21.65
2023-01-05T14:05:57.383Z,21.27
2023-01-05T14:08:29.822Z,16.08
2023-01-05T14:11:15.411Z,22.77
2023-01-05T14:13:45.443Z,17.67
2023-01-05T14:16:32.247Z,19.50
2023-01-05T14:19:11.696Z,16.92
2023-01-05T14:22:00.591Z,19.48
2023-01-05T14:24:29.737Z,17.88
2023-01-05T14:27:16.260Z,18.98
2023-01-05T14:29:46.509Z,20.58
2023-01-05T14:32:25.933Z,19.38
2023-01-05T14:34:54.493Z,16.08
2023-01-05T14:37:23.994Z,14.00
2023-01-05T14:39:53.274Z,16.08
2023-01-05T14:42:25.087Z,19.10
2023-01-05T14:44:58.077Z,16.98
2023-01-05T14:47:37.512Z,15.20
2023-01-05T14:50:06.302Z,14.15
2023-01-05T14:52:51.992Z,16.08
2023-01-05T14:55:38.417Z,17.05
2023-01-05T14:58:14.490Z,21.58
2023-01-05T15:05:59.556Z,22.73
2023-01-05T15:08:45.440Z,20.75
2023-01-05T15:11:26.912Z,19.58
2023-01-05T15:14:15.769Z,22.88
2023-01-05T15:16:42.879Z,25.95
2023-01-05T15:19:13.005Z,23.33
2023-01-05T15:21:49.483Z,24.67
2023-01-05T15:24:16.790Z,21.88
2023-01-05T15:26:58.630Z,23.33
2023-01-05T15:29:27.641Z,25.55
2023-01-05T15:32:12.852Z,19.40
2023-01-05T15:34:54.088Z,20.80
2023-01-05T15:37:23.678Z,23.80
2023-01-05T15:39:55.224Z,32.60
2023-01-05T15:42:31.436Z,26.13
2023-01-05T15:44:59.056Z,28.77
2023-01-05T15:47:27.743Z,36.85
2023-01-05T15:49:59.271Z,34.95
2023-01-05T15:52:36.529Z,31.67
2023-01-05T15:55:12.673Z,30.05
2023-01-05T15:57:39.904Z,25.80
2023-01-05T16:00:21.159Z,31.15
2023-01-05T16:02:48.413Z,37.15
2023-01-05T16:05:16.900Z,33.58
2023-01-05T16:08:08.770Z,35.67
2023-01-05T16:10:47.147Z,38.65
2023-01-05T16:13:14.207Z,44.10
2023-01-05T16:15:42.472Z,47.72
2023-01-05T16:18:25.838Z,50.75
2023-01-05T16:20:54.123Z,49.25
2023-01-05T16:23:34.057Z,44.95
2023-01-05T16:26:01.305Z,47.72
2023-01-05T16:28:31.654Z,46.00
2023-01-05T16:30:58.851Z,48.95
2023-01-05T16:33:36.671Z,40.65
2023-01-05T16:36:08.404Z,46.05
2023-01-05T16:38:36.261Z,53.53
2023-01-05T16:41:05.820Z,49.45
2023-01-05T16:43:44.723Z,49.05
2023-01-05T16:46:20.241Z,42.72
2023-01-05T16:48:50.259Z,56.53
2023-01-05T16:54:24.454Z,49.97
2023-01-05T16:56:58.021Z,50.22
2023-01-05T16:59:34.459Z,53.97
2023-01-05T17:02:02.433Z,62.78
2023-01-05T17:04:29.662Z,61.60
2023-01-05T17:06:58.217Z,60.90
2023-01-05T17:09:31.099Z,50.95
2023-01-05T17:11:58.580Z,54.80
2023-01-05T17:14:26.886Z,42.22
2023-01-05T17:16:54.648Z,47.10
2023-01-05T17:19:21.953Z,49.60
2023-01-05T17:22:01.287Z,47.33
2023-01-05T17:24:32.038Z,43.20
2023-01-05T17:27:02.184Z,42.72
2023-01-05T17:29:33.090Z,48.78
2023-01-05T17:32:00.304Z,44.60
2023-01-05T17:34:27.661Z,48.88
2023-01-05T17:36:56.334Z,54.53
2023-01-05T17:39:23.796Z,52.60
2023-01-05T17:41:51.157Z,45.13
2023-01-05T17:44:18.335Z,45.15
2023-01-05T17:46:46.981Z,49.45
2023-01-05T17:49:18.238Z,54.78
2023-01-05T17:51:45.523Z,50.00
2023-01-05T17:54:12.778Z,51.90
2023-01-05T17:56:40.071Z,50.53
2023-01-05T17:59:07.296Z,46.10
2023-01-05T18:01:34.575Z,48.30
2023-01-05T18:04:02.235Z,57.75
2023-01-05T18:06:29.480Z,52.17
2023-01-05T18:08:56.567Z,64.63
2023-01-05T18:11:23.809Z,48.85
2023-01-05T18:13:50.843Z,48.88
2023-01-05T18:16:17.978Z,57.88
2023-01-05T18:18:45.197Z,71.63
2023-01-05T18:21:15.256Z,48.45
2023-01-05T18:23:42.414Z,40.03
2023-01-05T18:26:10.460Z,39.15
2023-01-05T18:28:38.268Z,40.70
2023-01-05T18:31:12.235Z,40.90
2023-01-05T18:33:39.527Z,41.60
2023-01-05T18:36:14.058Z,36.28
2023-01-05T18:38:42.060Z,43.80
2023-01-05T18:41:09.594Z,36.25
2023-01-05T18:43:37.134Z,37.55
2023-01-05T18:46:04.932Z,37.35
2023-01-05T18:48:32.440Z,39.15
2023-01-05T18:51:00.148Z,38.97
2023-01-05T18:53:27.274Z,39.90
2023-01-05T18:55:54.710Z,38.15
2023-01-05T18:58:21.750Z,40.65
2023-01-05T19:00:49.003Z,38.33
2023-01-05T19:03:16.227Z,37.40
2023-01-05T19:05:44.299Z,36.00
2023-01-05T19:08:12.495Z,33.22
2023-01-05T19:10:40.251Z,33.50
2023-01-05T19:13:07.580Z,37.13
2023-01-05T19:15:38.279Z,33.70
2023-01-05T19:18:05.949Z,41.15
2023-01-05T19:20:34.272Z,31.50
2023-01-05T19:23:01.431Z,35.80
2023-01-05T19:25:29.738Z,31.90
2023-01-05T19:27:59.151Z,35.45
2023-01-05T19:30:29.099Z,35.65
2023-01-05T19:32:56.278Z,37.15
2023-01-05T19:35:24.190Z,37.40
2023-01-05T19:37:51.293Z,37.13
2023-01-05T19:40:18.500Z,42.67
2023-01-05T19:42:45.801Z,37.05
2023-01-05T19:45:13.274Z,32.72
2023-01-05T19:47:41.756Z,36.08
2023-01-05T19:50:09.951Z,42.78
2023-01-05T19:52:37.186Z,39.85
2023-01-05T19:55:04.872Z,33.40
2023-01-05T19:57:32.121Z,27.92
2023-01-05T19:59:59.348Z,33.78
2023-01-05T20:02:27.363Z,33.42
2023-01-05T20:04:54.671Z,31.60
2023-01-05T20:07:22.613Z,31.55
2023-01-05T20:09:50.910Z,30.13
2023-01-05T20:12:18.284Z,28.40
2023-01-05T20:14:45.536Z,36.30
2023-01-05T20:17:13.629Z,26.38
2023-01-05T20:19:41.144Z,35.78
2023-01-05T20:22:14.252Z,27.80
2023-01-05T20:24:42.317Z,28.23
2023-01-05T20:27:11.136Z,35.25
2023-01-05T20:29:39.659Z,23.45
2023-01-05T20:32:06.860Z,24.42
2023-01-05T20:34:36.560Z,26.10
2023-01-05T20:37:05.528Z,29.33
2023-01-05T20:39:32.871Z,29.98
2023-01-05T20:42:06.083Z,26.52
2023-01-05T20:44:35.134Z,26.05
2023-01-05T20:47:05.844Z,23.33
2023-01-05T20:49:33.931Z,33.00
2023-01-05T20:52:00.979Z,32.10
2023-01-05T20:54:28.132Z,24.90
2023-01-05T20:56:55.299Z,27.23
2023-01-05T20:59:24.275Z,25.38
2023-01-05T21:01:52.073Z,26.83
2023-01-05T21:04:20.013Z,30.27
2023-01-05T21:06:47.844Z,25.90
2023-01-05T21:09:15.191Z,32.08
2023-01-05T21:11:42.387Z,31.02
2023-01-05T21:14:11.225Z,34.35
2023-01-05T21:16:40.245Z,32.17
2023-01-05T21:19:07.820Z,30.50
2023-01-05T21:21:35.116Z,37.50
2023-01-05T21:24:03.042Z,32.22
2023-01-05T21:26:30.314Z,29.40
2023-01-05T21:28:57.422Z,35.03
2023-01-05T21:31:25.721Z,27.92
2023-01-05T21:33:56.041Z,30.48
2023-01-05T21:36:24.397Z,28.45
2023-01-05T21:39:00.962Z,26.77
2023-01-05T21:41:52.141Z,24.60
2023-01-05T21:44:20.179Z,27.77
2023-01-05T21:46:48.042Z,25.92
2023-01-05T21:49:15.313Z,26.60
2023-01-05T21:52:01.618Z,25.00
2023-01-05T21:54:49.041Z,20.17
2023-01-05T21:57:16.215Z,25.42
2023-01-05T21:59:43.754Z,20.55
2023-01-05T22:02:11.454Z,24.02
2023-01-05T22:04:38.575Z,23.55
2023-01-05T22:07:07.592Z,27.00
2023-01-05T22:09:35.412Z,24.38
2023-01-05T22:12:03.111Z,20.88
2023-01-05T22:14:30.343Z,21.95
2023-01-05T22:16:57.516Z,23.05
2023-01-05T22:19:25.232Z,22.30
2023-01-05T22:21:52.327Z,23.30
2023-01-05T22:24:19.958Z,29.42
2023-01-05T22:26:47.116Z,19.15
2023-01-05T22:29:14.231Z,24.85
2023-01-05T22:31:41.576Z,22.25
2023-01-05T22:34:09.075Z,23.00
2023-01-05T22:36:36.454Z,22.83
2023-01-05T22:39:03.649Z,27.85
2023-01-05T22:41:31.502Z,23.85
2023-01-05T22:43:59.186Z,20.77
2023-01-05T22:46:27.535Z,19.38
2023-01-05T22:48:55.260Z,24.45
2023-01-05T22:51:25.568Z,21.88
2023-01-05T22:53:52.863Z,19.15
2023-01-05T22:56:21.205Z,23.27
2023-01-05T22:58:48.559Z,26.13
2023-01-05T23:01:26.232Z,22.70
2023-01-05T23:03:54.217Z,24.52
2023-01-05T23:06:21.699Z,26.10
2023-01-05T23:08:49.763Z,39.35
2023-01-05T23:11:21.643Z,25.25
2023-01-05T23:13:49.428Z,25.17
2023-01-05T23:16:16.818Z,31.33
2023-01-05T23:18:44.258Z,31.73
2023-01-05T23:21:12.999Z,38.15
2023-01-05T23:23:40.708Z,32.78
2023-01-05T23:26:09.524Z,28.73
2023-01-05T23:28:36.977Z,31.80
2023-01-05T23:31:04.499Z,33.97
2023-01-05T23:33:35.494Z,34.38
2023-01-05T23:36:03.439Z,37.25
2023-01-05T23:38:31.042Z,32.65
2023-01-05T23:40:59.230Z,33.97
2023-01-05T23:43:29.412Z,29.85
2023-01-05T23:46:06.167Z,28.05
2023-01-05T23:48:34.853Z,31.23
2023-01-05T23:51:02.344Z,24.98
2023-01-05T23:53:29.575Z,31.15
2023-01-05T23:56:10.502Z,23.50
2023-01-05T23:58:38.153Z,27.60
